Time;durP1;ratioP1;P1;durP2;ratioP2;P2;SDS_P1;SDS_P2;PMS_P1;PMS_P2;Temp;Humidity;BMP_temperature;BMP_pressure;BME280_temperature;BME280_humidity;BME280_pressure;Samples;Min_cycle;Max_cycle;Signal;HPM_P1;HPM_P2
2023/09/27 00:00:47;;;;;;;9.45;3.65;;;;;;;23.03;52.33;99938.72;4860453;29;20058;-41
2023/09/27 00:03:12;;;;;;;5.93;3.63;;;;;;;22.95;52.56;99938.50;4860592;29;20452;-39
2023/09/27 00:05:38;;;;;;;7.63;3.90;;;;;;;22.87;52.70;99942.63;4860999;29;20021;-43
2023/09/27 00:08:04;;;;;;;9.95;4.00;;;;;;;22.84;52.83;99945.88;4860647;29;20146;-42
2023/09/27 00:10:29;;;;;;;10.27;4.30;;;;;;;22.72;53.00;99934.56;4860989;29;20104;-39
2023/09/27 00:12:55;;;;;;;8.82;3.85;;;;;;;22.80;52.79;99934.78;4860758;29;20108;-40
2023/09/27 00:15:20;;;;;;;12.07;4.00;;;;;;;22.84;52.87;99940.44;4860474;29;20415;-39
2023/09/27 00:17:47;;;;;;;8.23;3.88;;;;;;;22.69;53.31;99940.53;4860120;29;20367;-41
2023/09/27 00:20:15;;;;;;;11.65;5.20;;;;;;;22.76;52.81;99938.34;4860374;29;20442;-41
2023/09/27 00:22:41;;;;;;;8.50;3.95;;;;;;;22.72;52.83;99931.84;4860166;29;20112;-41
2023/09/27 00:25:09;;;;;;;7.65;3.85;;;;;;;22.69;53.01;99929.69;4860553;29;20032;-40
2023/09/27 00:27:36;;;;;;;10.80;4.10;;;;;;;22.53;53.47;99934.38;4860296;29;20025;-41
2023/09/27 00:30:09;;;;;;;8.60;4.20;;;;;;;22.36;53.76;99932.81;4860094;29;20548;-39
2023/09/27 00:32:35;;;;;;;7.40;4.00;;;;;;;22.15;54.18;99933.94;4860321;29;20045;-40
2023/09/27 00:35:01;;;;;;;9.30;4.15;;;;;;;22.13;55.08;99928.00;4859994;29;20372;-39
2023/09/27 00:37:27;;;;;;;6.95;3.78;;;;;;;22.13;54.68;99930.72;4860159;29;20496;-40
2023/09/27 00:39:54;;;;;;;8.45;4.07;;;;;;;22.20;54.96;99926.63;4860173;29;20025;-41
2023/09/27 00:42:20;;;;;;;10.45;4.15;;;;;;;22.19;54.99;99929.59;4860131;29;20120;-39
2023/09/27 00:44:45;;;;;;;5.70;3.92;;;;;;;22.10;54.87;99921.22;4859844;29;20158;-40
2023/09/27 00:47:11;;;;;;;7.75;3.80;;;;;;;22.15;55.35;99912.28;4859912;29;20375;-40
2023/09/27 00:49:39;;;;;;;11.27;4.22;;;;;;;22.15;55.05;99915.78;4859621;29;20548;-40
2023/09/27 00:52:04;;;;;;;7.93;3.85;;;;;;;22.10;55.23;99915.00;4859909;29;20029;-40
2023/09/27 00:54:31;;;;;;;7.10;4.13;;;;;;;22.15;55.19;99923.13;4859769;29;20044;-40
2023/09/27 00:56:58;;;;;;;8.32;4.30;;;;;;;22.12;54.99;99916.31;4859852;29;20088;-40
2023/09/27 00:59:25;;;;;;;6.68;4.00;;;;;;;22.09;55.35;99922.31;4859888;29;20478;-41
2023/09/27 01:01:52;;;;;;;9.23;4.20;;;;;;;22.05;55.69;99913.13;4859474;29;20064;-42
2023/09/27 01:04:17;;;;;;;9.20;4.05;;;;;;;21.94;55.95;99916.94;4859798;29;20041;-43
2023/09/27 01:06:46;;;;;;;12.93;4.60;;;;;;;21.93;55.98;99920.72;4859672;29;20592;-42
2023/09/27 01:09:11;;;;;;;11.75;4.63;;;;;;;21.80;56.59;99928.34;4859542;29;20451;-41
2023/09/27 01:11:38;;;;;;;8.00;4.20;;;;;;;21.67;56.81;99913.47;4859573;29;20038;-42
2023/09/27 01:14:04;;;;;;;10.95;4.50;;;;;;;21.76;56.74;99915.59;4859409;29;20371;-42
2023/09/27 01:16:29;;;;;;;11.20;5.13;;;;;;;21.84;56.60;99909.66;4859443;29;20501;-41
2023/09/27 01:19:01;;;;;;;8.85;4.20;;;;;;;21.66;56.95;99916.44;4859756;29;20029;-43
2023/09/27 01:21:26;;;;;;;7.45;4.28;;;;;;;21.58;56.75;99917.00;4859420;29;20100;-42
2023/09/27 01:23:51;;;;;;;10.02;4.07;;;;;;;21.41;57.44;99911.81;4859276;29;20483;-41
2023/09/27 01:26:20;;;;;;;10.80;4.30;;;;;;;21.53;56.98;99912.38;4859271;29;20022;-40
2023/09/27 01:28:46;;;;;;;6.82;4.10;;;;;;;21.44;57.70;99911.31;4859078;29;20061;-40
2023/09/27 01:31:12;;;;;;;8.32;3.97;;;;;;;21.51;56.65;99913.75;4859309;29;20120;-40
2023/09/27 01:33:37;;;;;;;6.93;3.90;;;;;;;21.52;56.47;99909.97;4858787;29;20044;-40
2023/09/27 01:36:03;;;;;;;9.52;4.28;;;;;;;21.52;56.27;99909.97;4858859;29;20451;-40
2023/09/27 01:38:30;;;;;;;8.02;3.63;;;;;;;21.64;56.77;99913.19;4858959;29;20065;-39
2023/09/27 01:40:55;;;;;;;11.70;4.10;;;;;;;21.63;55.74;99904.25;4858968;29;20029;-41
2023/09/27 01:43:21;;;;;;;7.57;3.85;;;;;;;21.77;55.86;99907.22;4855887;29;20089;-41
2023/09/27 01:45:46;;;;;;;8.95;4.60;;;;;;;21.70;55.82;99911.28;4858833;29;20481;-41
2023/09/27 01:48:12;;;;;;;10.68;4.38;;;;;;;21.71;55.90;99905.59;4858956;29;20029;-42
2023/09/27 01:50:37;;;;;;;9.68;4.53;;;;;;;21.70;55.72;99914.00;4859030;29;20105;-40
2023/09/27 01:53:03;;;;;;;12.80;4.43;;;;;;;21.55;56.38;99912.13;4858729;29;20101;-41
2023/09/27 01:55:29;;;;;;;8.98;4.50;;;;;;;21.59;56.10;99913.19;4858717;29;20500;-41
2023/09/27 01:57:56;;;;;;;14.88;5.18;;;;;;;21.56;56.10;99906.44;4858051;29;20073;-40
2023/09/27 02:00:21;;;;;;;14.30;5.25;;;;;;;21.55;56.14;99904.81;4858071;29;20058;-42
2023/09/27 02:02:55;;;;;;;11.52;4.80;;;;;;;21.61;56.05;99911.84;4858358;29;20029;-41
2023/09/27 02:05:21;;;;;;;15.27;4.82;;;;;;;21.61;56.54;99898.31;4858384;29;20108;-41
2023/09/27 02:07:46;;;;;;;8.60;4.20;;;;;;;21.25;57.33;99901.00;4858273;29;20158;-40
2023/09/27 02:10:12;;;;;;;7.88;4.63;;;;;;;21.32;57.09;99906.13;4858191;29;20056;-41
2023/09/27 02:12:38;;;;;;;9.82;4.03;;;;;;;21.51;56.55;99905.63;4858478;29;20034;-40
2023/09/27 02:15:08;;;;;;;10.75;4.63;;;;;;;21.46;56.36;99904.53;4858328;29;20175;-40
2023/09/27 02:17:35;;;;;;;9.35;4.40;;;;;;;21.21;57.41;99907.22;4857636;29;20097;-41
2023/09/27 02:20:05;;;;;;;12.65;4.35;;;;;;;20.98;58.18;99912.09;4857921;29;20081;-41
2023/09/27 02:22:30;;;;;;;9.93;4.53;;;;;;;21.01;57.81;99895.28;4858438;29;20061;-41
2023/09/27 02:24:57;;;;;;;13.45;4.70;;;;;;;21.20;57.14;99898.28;4858390;29;20052;-41
2023/09/27 02:27:23;;;;;;;10.63;4.88;;;;;;;21.23;57.28;99905.06;4858331;29;20025;-42
2023/09/27 02:29:48;;;;;;;13.50;5.80;;;;;;;21.16;57.15;99902.63;4858081;29;20510;-41
2023/09/27 02:32:14;;;;;;;14.07;5.53;;;;;;;21.09;57.51;99908.31;4857992;29;20113;-41
2023/09/27 02:34:39;;;;;;;12.68;5.97;;;;;;;21.15;57.01;99903.72;4858120;29;20093;-41
2023/09/27 02:37:05;;;;;;;12.45;5.78;;;;;;;21.09;57.66;99902.06;4858404;29;20116;-40
2023/09/27 02:39:30;;;;;;;17.70;7.72;;;;;;;21.09;57.90;99902.06;4857901;29;20403;-40
2023/09/27 02:41:59;;;;;;;12.60;6.80;;;;;;;21.16;56.95;99902.63;4858280;29;20032;-41
2023/09/27 02:44:25;;;;;;;20.95;12.63;;;;;;;21.16;57.10;99904.53;4858829;29;20030;-40
2023/09/27 02:46:53;;;;;;;26.65;14.50;;;;;;;21.19;57.18;99906.66;4858428;29;20029;-42
2023/09/27 02:49:19;;;;;;;11.88;7.15;;;;;;;21.29;56.99;99909.41;4858697;29;20026;-40
2023/09/27 02:51:47;;;;;;;14.20;6.35;;;;;;;21.27;57.05;99909.66;4858812;29;20376;-42
2023/09/27 02:54:15;;;;;;;12.45;5.68;;;;;;;21.30;56.88;99908.28;4858548;29;20034;-44
2023/09/27 02:56:43;;;;;;;11.35;6.05;;;;;;;21.26;56.96;99907.22;4858434;29;20407;-40
2023/09/27 02:59:10;;;;;;;9.77;5.15;;;;;;;21.33;57.26;99910.47;4858767;29;20025;-39
2023/09/27 03:01:38;;;;;;;13.93;6.35;;;;;;;21.32;56.86;99913.44;4858525;29;20072;-40
2023/09/27 03:04:03;;;;;;;20.50;12.45;;;;;;;21.34;57.16;99913.97;4858572;29;20022;-42
2023/09/27 03:06:29;;;;;;;24.70;11.98;;;;;;;21.43;56.72;99915.88;4858551;29;20022;-41
2023/09/27 03:08:54;;;;;;;11.70;5.70;;;;;;;21.47;56.05;99918.88;4858363;29;20025;-40
2023/09/27 03:11:20;;;;;;;10.48;5.30;;;;;;;21.41;56.47;99917.25;4858441;29;20399;-39
2023/09/27 03:13:45;;;;;;;15.18;5.53;;;;;;;21.35;56.74;99924.56;4858799;29;20033;-43
2023/09/27 03:16:11;;;;;;;9.13;4.90;;;;;;;21.42;56.44;99919.69;4858578;29;20118;-42
2023/09/27 03:18:37;;;;;;;13.73;5.03;;;;;;;21.39;56.70;99925.63;4858684;29;20056;-40
2023/09/27 03:21:03;;;;;;;10.20;5.43;;;;;;;21.43;56.43;99929.41;4858356;29;20029;-42
2023/09/27 03:23:28;;;;;;;11.07;5.13;;;;;;;21.37;57.03;99929.69;4856749;29;20085;-40
2023/09/27 03:25:57;;;;;;;11.20;5.03;;;;;;;21.30;57.06;99927.25;4858200;29;20031;-40
2023/09/27 03:28:23;;;;;;;8.63;4.53;;;;;;;21.35;56.96;99934.56;4842288;29;20034;-41
2023/09/27 03:30:49;;;;;;;13.35;5.38;;;;;;;21.23;57.28;99932.13;4839684;29;20459;-39
2023/09/27 03:33:14;;;;;;;7.60;4.97;;;;;;;21.31;56.79;99926.19;4839913;29;20154;-41
2023/09/27 03:35:41;;;;;;;11.50;5.07;;;;;;;21.35;56.83;99937.28;4840119;29;20108;-38
2023/09/27 03:38:06;;;;;;;9.70;5.15;;;;;;;21.36;56.88;99942.44;4839800;29;20034;-40
2023/09/27 03:40:32;;;;;;;18.05;5.50;;;;;;;21.37;57.45;99935.13;4839721;29;20546;-38
2023/09/27 03:42:57;;;;;;;8.98;5.28;;;;;;;21.39;57.31;99932.94;4839729;29;20026;-40
2023/09/27 03:45:23;;;;;;;9.32;4.85;;;;;;;21.32;56.82;99929.69;4839573;29;20071;-41
2023/09/27 03:47:48;;;;;;;73.25;31.63;;;;;;;21.50;59.86;99934.59;4839773;29;20026;-41
2023/09/27 03:50:14;;;;;;;28.70;15.05;;;;;;;21.49;56.84;99935.66;4839576;29;20026;-40
2023/09/27 03:52:43;;;;;;;12.43;6.50;;;;;;;21.61;56.91;99932.69;4839521;29;20060;-40
2023/09/27 03:55:10;;;;;;;18.27;5.85;;;;;;;21.52;55.98;99937.03;4839895;29;20032;-40
2023/09/27 03:57:35;;;;;;;25.80;12.82;;;;;;;21.36;57.88;99937.00;4840715;29;20034;-41
2023/09/27 04:00:01;;;;;;;21.60;9.40;;;;;;;21.36;57.62;99934.31;4843115;29;20062;-39
2023/09/27 04:02:27;;;;;;;13.43;4.82;;;;;;;21.24;56.22;99937.25;4842908;29;20044;-40
2023/09/27 04:04:53;;;;;;;8.13;4.85;;;;;;;21.26;56.11;99940.50;4843847;29;20098;-39
2023/09/27 04:07:21;;;;;;;14.95;4.82;;;;;;;21.25;55.99;99943.50;4843176;29;20424;-39
2023/09/27 04:09:47;;;;;;;12.45;6.57;;;;;;;21.23;57.30;99940.25;4841710;29;20534;-40
2023/09/27 04:12:13;;;;;;;14.50;5.32;;;;;;;21.11;56.30;99945.09;4843145;29;20046;-40
2023/09/27 04:14:39;;;;;;;10.98;5.03;;;;;;;20.87;56.88;99946.41;4842904;29;20438;-40
2023/09/27 04:17:04;;;;;;;9.55;4.43;;;;;;;20.82;57.60;99946.38;4843180;29;20037;-39
2023/09/27 04:19:31;;;;;;;23.42;9.75;;;;;;;20.67;61.36;99955.25;4843013;29;20037;-40
2023/09/27 04:21:56;;;;;;;10.25;5.28;;;;;;;20.88;58.63;99950.72;4843390;29;20467;-40
2023/09/27 04:24:22;;;;;;;13.05;4.43;;;;;;;21.01;57.23;99960.22;4842863;29;20030;-40
2023/09/27 04:26:47;;;;;;;11.13;4.88;;;;;;;20.77;57.55;99954.50;4842750;29;20455;-39
2023/09/27 04:29:13;;;;;;;14.52;4.40;;;;;;;20.84;57.86;99959.63;4843245;29;20040;-40
2023/09/27 04:31:39;;;;;;;30.30;15.23;;;;;;;20.93;57.80;99960.75;4842887;29;20030;-41
2023/09/27 04:34:04;;;;;;;14.98;8.57;;;;;;;20.97;57.53;99961.03;4843233;29;20120;-40
2023/09/27 04:36:30;;;;;;;15.25;5.63;;;;;;;20.86;57.93;99962.88;4842139;29;20411;-40
2023/09/27 04:38:55;;;;;;;12.10;5.03;;;;;;;20.73;58.53;99957.97;4842591;29;20117;-40
2023/09/27 04:41:21;;;;;;;14.85;6.28;;;;;;;20.81;58.26;99958.28;4841999;29;20137;-44
2023/09/27 04:43:46;;;;;;;11.55;5.10;;;;;;;20.95;58.02;99964.00;4841756;29;20030;-40
2023/09/27 04:46:18;;;;;;;12.40;5.00;;;;;;;21.07;57.28;99966.47;4842013;29;20064;-41
2023/09/27 04:48:45;;;;;;;9.88;5.07;;;;;;;20.95;57.67;99968.59;4842502;29;20033;-41
2023/09/27 04:51:11;;;;;;;11.40;5.10;;;;;;;21.09;57.13;99977.81;4842348;29;20038;-40
2023/09/27 04:53:37;;;;;;;10.00;4.53;;;;;;;21.09;57.25;99967.00;4842689;29;20117;-40
2023/09/27 04:56:07;;;;;;;8.52;4.47;;;;;;;21.04;57.33;99972.41;4841621;29;20467;-42
2023/09/27 04:58:32;;;;;;;16.00;7.80;;;;;;;20.93;57.61;99976.97;4842380;29;20038;-40
2023/09/27 05:00:58;;;;;;;17.52;6.35;;;;;;;20.52;58.58;99976.78;4841535;29;20064;-41
2023/09/27 05:03:23;;;;;;;12.00;5.63;;;;;;;20.84;57.46;99967.75;4854244;29;20124;-39
2023/09/27 05:05:49;;;;;;;12.73;4.78;;;;;;;20.69;57.54;99974.75;4859893;29;20043;-40
2023/09/27 05:08:14;;;;;;;11.00;4.45;;;;;;;21.10;56.77;99979.47;4855979;29;20036;-43
2023/09/27 05:10:40;;;;;;;11.93;5.00;;;;;;;21.19;56.80;99969.75;4860006;29;20040;-40
2023/09/27 05:13:05;;;;;;;10.45;5.28;;;;;;;21.56;56.11;99976.03;4860782;29;20475;-41
2023/09/27 05:15:33;;;;;;;12.15;4.88;;;;;;;21.73;55.56;99978.47;4860061;29;20021;-40
2023/09/27 05:17:59;;;;;;;17.90;8.98;;;;;;;21.77;55.23;99979.53;4860079;29;20038;-39
2023/09/27 05:20:24;;;;;;;17.95;10.10;;;;;;;21.40;56.28;99964.31;4860361;29;20113;-39
2023/09/27 05:22:51;;;;;;;11.55;5.20;;;;;;;21.66;55.78;99973.31;4860158;29;20410;-41
2023/09/27 05:25:16;;;;;;;12.48;5.07;;;;;;;21.69;55.33;99970.06;4860360;29;20550;-39
2023/09/27 05:27:42;;;;;;;11.50;4.35;;;;;;;21.81;54.82;99980.63;4848092;29;20113;-39
2023/09/27 05:30:08;;;;;;;10.55;4.57;;;;;;;21.96;54.63;99994.13;4838940;29;20380;-42
2023/09/27 05:32:33;;;;;;;9.82;4.78;;;;;;;22.17;54.34;99986.78;4839701;29;20117;-40
2023/09/27 05:34:59;;;;;;;9.43;4.65;;;;;;;21.91;54.55;99982.50;4839928;29;20047;-40
2023/09/27 05:37:24;;;;;;;10.50;4.88;;;;;;;22.27;53.90;99990.59;4840053;29;20109;-41
2023/09/27 05:39:50;;;;;;;10.43;5.60;;;;;;;22.75;53.21;99993.66;4840005;29;20060;-42
2023/09/27 05:42:15;;;;;;;11.55;4.82;;;;;;;23.15;52.20;99987.25;4839524;29;20029;-40
2023/09/27 05:44:40;;;;;;;9.27;4.70;;;;;;;23.34;51.80;99989.28;4839979;29;20045;-39
2023/09/27 05:47:06;;;;;;;13.10;4.32;;;;;;;23.71;50.59;99993.38;4840219;29;20063;-39
2023/09/27 05:49:31;;;;;;;28.15;9.77;;;;;;;23.89;49.91;99998.09;4840198;29;20022;-39
2023/09/27 05:51:57;;;;;;;21.23;6.60;;;;;;;23.91;49.78;99998.66;4839731;29;20422;-40
2023/09/27 05:54:22;;;;;;;30.77;10.52;;;;;;;24.05;49.24;100008.84;4840095;29;20025;-40
2023/09/27 05:56:51;;;;;;;17.98;6.55;;;;;;;24.14;49.01;100007.94;4840199;29;20368;-39
2023/09/27 05:59:17;;;;;;;35.60;11.88;;;;;;;24.62;47.80;100015.34;4840551;29;20109;-40
2023/09/27 06:01:43;;;;;;;14.20;6.55;;;;;;;25.12;46.87;100020.41;4852638;29;20061;-40
2023/09/27 06:04:08;;;;;;;12.18;4.55;;;;;;;25.44;46.07;100011.50;4859029;29;20410;-41
2023/09/27 06:06:36;;;;;;;9.27;4.03;;;;;;;25.82;45.19;100016.09;4858313;29;20108;-41
2023/09/27 06:09:03;;;;;;;11.65;5.15;;;;;;;26.55;43.64;100025.41;4858286;29;20032;-39
2023/09/27 06:11:32;;;;;;;16.15;6.28;;;;;;;26.63;43.29;100021.97;4856622;29;20089;-41
2023/09/27 06:13:58;;;;;;;11.82;4.40;;;;;;;27.22;41.96;100024.81;4857953;29;20040;-41
2023/09/27 06:16:24;;;;;;;8.77;4.65;;;;;;;27.71;40.85;100016.06;4858061;29;20022;-42
2023/09/27 06:18:49;;;;;;;11.95;4.60;;;;;;;27.91;40.26;100015.56;4858190;29;20033;-40
2023/09/27 06:21:15;;;;;;;12.85;3.97;;;;;;;28.10;39.66;100020.00;4857707;29;20460;-41
2023/09/27 06:23:41;;;;;;;15.23;4.45;;;;;;;28.52;39.15;100017.78;4847456;29;20022;-41
2023/09/27 06:26:07;;;;;;;13.77;4.30;;;;;;;28.47;39.05;100021.47;4840495;29;20562;-40
2023/09/27 06:28:33;;;;;;;13.07;4.50;;;;;;;28.91;38.22;100019.66;4840571;29;20034;-42
2023/09/27 06:30:59;;;;;;;13.85;4.55;;;;;;;28.45;39.01;100027.25;4840670;29;20403;-43
2023/09/27 06:33:25;;;;;;;13.05;4.43;;;;;;;29.04;38.03;100026.16;4840556;29;20033;-42
2023/09/27 06:35:50;;;;;;;12.63;4.25;;;;;;;28.80;37.97;100029.31;4840574;29;20029;-42
2023/09/27 06:38:21;;;;;;;11.60;4.28;;;;;;;29.30;37.25;100017.97;4840512;29;20025;-42
2023/09/27 06:40:48;;;;;;;15.02;4.78;;;;;;;29.19;37.54;100024.91;4840350;29;20036;-44
2023/09/27 06:43:14;;;;;;;38.58;11.52;;;;;;;29.10;37.30;100024.06;4840086;29;20515;-41
2023/09/27 06:45:40;;;;;;;17.60;7.40;;;;;;;29.59;36.87;100019.25;4839943;29;20026;-42
2023/09/27 06:48:06;;;;;;;12.98;5.10;;;;;;;30.31;35.62;100027.78;4839639;29;20093;-41
2023/09/27 06:50:32;;;;;;;10.80;4.50;;;;;;;30.86;35.10;100026.88;4840092;29;20118;-46
2023/09/27 06:52:58;;;;;;;13.63;4.90;;;;;;;30.49;34.98;100026.59;4839500;29;20074;-47
2023/09/27 06:55:23;;;;;;;15.05;4.97;;;;;;;30.91;34.77;100025.91;4839589;29;20105;-44
2023/09/27 06:57:52;;;;;;;13.43;4.78;;;;;;;31.44;34.34;100031.81;4839768;29;20573;-43
2023/09/27 07:00:24;;;;;;;9.95;3.78;;;;;;;31.47;33.52;100031.16;4839849;29;20053;-41
2023/09/27 07:02:50;;;;;;;11.25;4.45;;;;;;;31.69;33.31;100030.00;4839707;29;20148;-46
2023/09/27 07:05:16;;;;;;;8.88;4.07;;;;;;;32.34;32.30;100025.53;4840904;29;20025;-43
2023/09/27 07:07:42;;;;;;;10.88;3.65;;;;;;;32.68;32.01;100029.03;4850115;29;20399;-41
2023/09/27 07:10:09;;;;;;;10.55;4.55;;;;;;;32.39;32.23;100032.00;4847392;29;20025;-41
2023/09/27 07:12:35;;;;;;;7.28;3.67;;;;;;;32.10;32.44;100031.84;4843683;29;20037;-43
2023/09/27 07:15:04;;;;;;;9.35;3.72;;;;;;;32.63;31.68;100022.94;4851391;29;20060;-43
2023/09/27 07:17:30;;;;;;;7.25;3.70;;;;;;;33.19;30.82;100030.56;4854373;29;20191;-41
2023/09/27 07:19:56;;;;;;;8.52;3.65;;;;;;;32.70;31.44;100037.75;4847530;29;20022;-42
2023/09/27 07:22:22;;;;;;;14.30;5.57;;;;;;;33.30;30.93;100039.94;4848689;29;20048;-41
2023/09/27 07:24:48;;;;;;;10.20;4.63;;;;;;;33.47;30.78;100031.41;4848998;29;20033;-42
2023/09/27 07:27:14;;;;;;;10.40;4.40;;;;;;;33.91;30.34;100030.63;4847518;29;20025;-43
2023/09/27 07:29:39;;;;;;;8.68;3.60;;;;;;;34.22;29.40;100029.84;4855501;29;20022;-44
2023/09/27 07:32:05;;;;;;;6.10;3.67;;;;;;;34.51;28.76;100029.75;4855422;29;20026;-43
2023/09/27 07:34:30;;;;;;;10.68;3.47;;;;;;;34.75;28.72;100026.81;4851093;29;20109;-43
2023/09/27 07:36:56;;;;;;;9.90;3.55;;;;;;;34.90;28.35;100030.69;4852546;29;20017;-41
2023/09/27 07:39:22;;;;;;;9.50;3.97;;;;;;;34.45;28.59;100023.69;4852062;29;20029;-42
2023/09/27 07:41:49;;;;;;;10.02;3.97;;;;;;;34.39;28.74;100028.69;4853155;29;20073;-42
2023/09/27 07:44:15;;;;;;;7.53;3.55;;;;;;;34.52;28.76;100025.81;4850010;29;20029;-42
2023/09/27 07:46:41;;;;;;;10.27;4.82;;;;;;;34.25;29.13;100023.63;4851372;29;20109;-41
2023/09/27 07:49:06;;;;;;;12.02;4.10;;;;;;;34.15;28.53;100031.63;4850821;29;20022;-45
2023/09/27 07:51:32;;;;;;;9.25;3.83;;;;;;;33.96;29.30;100032.31;4852465;29;20399;-43
2023/09/27 07:53:57;;;;;;;10.25;3.40;;;;;;;34.03;28.64;100033.28;4851264;29;20047;-41
2023/09/27 07:56:26;;;;;;;6.45;3.47;;;;;;;34.05;28.74;100027.44;4851461;29;20103;-42
2023/09/27 07:58:52;;;;;;;;;;;;;;;34.37;28.90;100025.50;4853148;29;20033;-42
2023/09/27 08:01:20;;;;;;;10.38;4.00;;;;;;;34.17;28.39;100027.34;4852537;29;19956;-40
2023/09/27 08:03:52;;;;;;;9.65;3.45;;;;;;;33.26;29.39;100028.00;4853555;29;20076;-40
2023/09/27 08:06:19;;;;;;;6.95;3.28;;;;;;;32.82;30.06;100030.59;4851457;29;20053;-43
2023/09/27 08:08:44;;;;;;;13.20;3.67;;;;;;;32.21;30.65;100026.69;4851140;29;20025;-42
2023/09/27 08:11:13;;;;;;;8.23;3.60;;;;;;;32.42;30.57;100020.28;4850983;29;20029;-48
2023/09/27 08:13:39;;;;;;;;;;;;;;;33.14;29.85;100031.59;4852196;29;20026;-45
2023/09/27 08:16:07;;;;;;;6.47;3.42;;;;;;;32.61;29.99;100026.03;4852143;29;19916;-43
2023/09/27 08:18:37;;;;;;;8.60;3.83;;;;;;;32.43;29.86;100035.66;4850048;29;20033;-42
2023/09/27 08:21:03;;;;;;;7.05;3.35;;;;;;;32.67;30.43;100034.88;4851480;29;20109;-44
2023/09/27 08:23:29;;;;;;;10.32;3.90;;;;;;;32.59;30.39;100031.09;4850071;29;20022;-46
2023/09/27 08:25:55;;;;;;;7.80;3.58;;;;;;;32.71;29.96;100033.84;4851798;29;20125;-44
2023/09/27 08:28:21;;;;;;;7.85;3.60;;;;;;;32.77;30.05;100037.16;4858046;29;20061;-44
2023/09/27 08:30:47;;;;;;;8.85;3.30;;;;;;;32.54;30.40;100034.06;4860603;29;20478;-43
2023/09/27 08:33:13;;;;;;;9.48;3.67;;;;;;;32.76;29.96;100034.75;4860597;29;20113;-41
2023/09/27 08:35:38;;;;;;;7.78;3.65;;;;;;;32.77;30.12;100031.66;4860384;29;20116;-44
2023/09/27 08:38:04;;;;;;;9.00;4.35;;;;;;;32.96;29.71;100028.31;4860784;29;20025;-45
2023/09/27 08:40:29;;;;;;;7.03;3.20;;;;;;;33.01;29.61;100028.03;4860846;29;20089;-44
2023/09/27 08:43:00;;;;;;;8.15;3.65;;;;;;;33.02;28.95;100026.91;4860643;29;20467;-45
2023/09/27 08:45:27;;;;;;;9.98;3.60;;;;;;;32.70;29.50;100029.47;4854984;29;20086;-44
2023/09/27 08:47:54;;;;;;;9.25;3.38;;;;;;;32.69;30.17;100029.81;4854988;29;20125;-42
2023/09/27 08:50:20;;;;;;;6.80;3.45;;;;;;;32.62;29.54;100015.84;4855425;29;20074;-43
2023/09/27 08:52:49;;;;;;;7.90;3.10;;;;;;;32.69;29.36;100022.38;4844427;29;20021;-45
2023/09/27 08:55:16;;;;;;;10.90;3.75;;;;;;;32.53;29.38;100024.19;4849591;29;20022;-43
2023/09/27 08:57:45;;;;;;;4.95;3.50;;;;;;;32.68;30.11;100022.72;4854626;29;20059;-44
2023/09/27 09:00:13;;;;;;;8.07;3.53;;;;;;;31.96;30.44;100028.56;4860175;29;20106;-42
2023/09/27 09:02:41;;;;;;;5.17;3.03;;;;;;;32.26;30.34;100014.66;4860189;29;20035;-44
2023/09/27 09:05:08;;;;;;;6.85;3.20;;;;;;;32.25;29.59;100013.03;4860370;29;20555;-42
2023/09/27 09:07:33;;;;;;;8.90;3.50;;;;;;;32.43;29.37;100019.16;4860140;29;20057;-44
2023/09/27 09:09:58;;;;;;;8.95;3.97;;;;;;;32.52;30.46;100017.09;4844631;29;20129;-47
2023/09/27 09:12:25;;;;;;;15.07;6.68;;;;;;;32.66;30.09;100014.78;4841678;29;20038;-44
2023/09/27 09:14:54;;;;;;;12.98;3.60;;;;;;;32.43;29.31;100016.38;4842081;29;20040;-45
2023/09/27 09:17:25;;;;;;;11.40;3.20;;;;;;;32.36;29.33;100011.44;4842146;29;20159;-43
2023/09/27 09:20:27;;;;;;;12.07;3.45;;;;;;;32.36;30.23;100011.44;4842179;29;20026;-45
2023/09/27 09:22:54;;;;;;;7.00;3.40;;;;;;;32.40;29.14;100017.06;4842073;29;20493;-44
2023/09/27 09:25:22;;;;;;;7.28;3.17;;;;;;;32.48;29.01;100013.38;4842229;29;20025;-43
2023/09/27 09:28:09;;;;;;;10.37;3.50;;;;;;;32.52;29.93;100012.38;4841426;29;20120;-44
2023/09/27 09:30:39;;;;;;;9.25;3.60;;;;;;;33.04;29.14;100002.56;4841827;29;20034;-43
2023/09/27 09:33:21;;;;;;;9.63;3.50;;;;;;;32.69;29.03;100013.28;4841921;29;20026;-42
2023/09/27 09:35:47;;;;;;;14.23;3.35;;;;;;;32.21;29.26;99999.16;4841726;29;20022;-43
2023/09/27 09:38:23;;;;;;;8.18;3.53;;;;;;;32.57;29.16;100005.84;4841759;29;20026;-43
2023/09/27 09:40:54;;;;;;;8.45;3.60;;;;;;;32.84;29.05;99998.00;4841968;29;20021;-43
2023/09/27 09:43:33;;;;;;;8.32;3.50;;;;;;;32.96;27.83;99999.91;4842123;29;20490;-42
2023/09/27 09:46:00;;;;;;;;;;;;;;;32.98;28.90;100001.19;4842714;29;20475;-44
2023/09/27 09:48:26;;;;;;;9.65;3.28;;;;;;;32.05;28.94;99995.50;4841754;29;19912;-45
2023/09/27 09:51:00;;;;;;;8.50;3.50;;;;;;;31.16;29.77;100007.63;4841204;29;20038;-44
2023/09/27 09:53:28;;;;;;;5.78;3.22;;;;;;;31.15;30.02;100000.53;4841961;29;20049;-42
2023/09/27 09:55:59;;;;;;;7.78;3.25;;;;;;;30.94;30.64;100003.28;4840910;29;20034;-43
2023/09/27 09:58:32;;;;;;;7.35;2.97;;;;;;;30.99;30.12;99998.38;4841749;29;20037;-43
2023/09/27 10:01:02;;;;;;;5.50;3.22;;;;;;;31.85;30.14;99997.13;4841179;29;20132;-42
2023/09/27 10:03:31;;;;;;;8.85;3.30;;;;;;;32.00;29.50;99984.66;4841278;29;20054;-44
2023/09/27 10:06:01;;;;;;;12.18;3.30;;;;;;;31.94;29.52;99979.38;4841395;29;20090;-42
2023/09/27 10:08:33;;;;;;;6.75;3.30;;;;;;;32.49;29.13;99982.75;4841128;29;20040;-42
2023/09/27 10:10:58;;;;;;;7.75;2.80;;;;;;;33.05;27.95;99978.53;4841218;29;20509;-44
2023/09/27 10:13:27;;;;;;;6.60;3.35;;;;;;;33.40;28.00;99969.72;4841307;29;20487;-45
2023/09/27 10:15:53;;;;;;;10.65;3.22;;;;;;;32.75;27.38;99973.34;4841070;29;20073;-45
2023/09/27 10:18:21;;;;;;;8.30;3.47;;;;;;;31.87;29.09;99965.41;4840893;29;20045;-45
2023/09/27 10:21:05;;;;;;;6.95;3.30;;;;;;;31.90;28.99;99961.16;4840609;29;20030;-43
2023/09/27 10:23:53;;;;;;;8.18;3.25;;;;;;;32.75;28.48;99956.81;4841483;29;20044;-45
2023/09/27 10:26:28;;;;;;;5.10;3.03;;;;;;;33.58;28.22;99950.88;4840737;29;20030;-42
2023/09/27 10:29:21;;;;;;;7.20;3.25;;;;;;;34.35;27.28;99947.72;4841354;29;20117;-43
2023/09/27 10:31:56;;;;;;;7.15;3.22;;;;;;;34.59;26.22;99948.63;4841253;29;20117;-43
2023/09/27 10:34:30;;;;;;;4.60;3.08;;;;;;;34.26;26.01;99938.84;4841016;29;20431;-46
2023/09/27 10:37:00;;;;;;;5.40;3.03;;;;;;;34.12;25.87;99931.00;4840680;29;20044;-44
2023/09/27 10:39:26;;;;;;;7.93;3.33;;;;;;;34.34;25.37;99932.31;4841097;29;20452;-44
2023/09/27 10:41:53;;;;;;;6.20;3.30;;;;;;;33.33;26.17;99928.16;4840759;29;20065;-43
2023/09/27 10:44:43;;;;;;;6.32;3.33;;;;;;;33.83;26.98;99924.78;4840661;29;20388;-42
2023/09/27 10:47:08;;;;;;;;;;;;;;;33.90;26.34;99929.66;4841038;29;20030;-43
2023/09/27 10:49:38;;;;;;;8.75;3.40;;;;;;;33.91;26.47;99922.19;4841096;29;20274;-43
2023/09/27 10:52:18;;;;;;;6.50;3.10;;;;;;;34.19;25.65;99920.13;4840257;29;20400;-45
2023/09/27 10:54:44;;;;;;;8.30;3.27;;;;;;;33.51;26.38;99907.38;4840793;29;20477;-46
2023/09/27 10:57:12;;;;;;;7.88;3.20;;;;;;;33.66;27.11;99905.78;4840884;29;20026;-45
2023/09/27 10:59:37;;;;;;;10.13;3.50;;;;;;;33.28;26.78;99904.38;4840867;29;20049;-45
2023/09/27 11:02:03;;;;;;;7.40;3.05;;;;;;;32.91;26.94;99899.03;4841018;29;20038;-48
2023/09/27 11:04:30;;;;;;;8.52;3.53;;;;;;;33.58;27.04;99902.03;4840551;29;20530;-44
2023/09/27 11:06:56;;;;;;;9.30;3.70;;;;;;;34.41;29.17;99899.34;4842545;29;20110;-44
2023/09/27 11:09:23;;;;;;;8.50;3.60;;;;;;;34.55;25.48;99895.28;4843963;29;20026;-44
2023/09/27 11:11:59;;;;;;;7.82;3.80;;;;;;;35.29;26.90;99889.69;4844445;29;20463;-41
2023/09/27 11:14:25;;;;;;;10.30;3.72;;;;;;;34.94;25.56;99887.00;4844314;29;20407;-44
2023/09/27 11:16:51;;;;;;;10.02;3.22;;;;;;;34.85;25.02;99876.97;4844340;29;20046;-44
2023/09/27 11:19:29;;;;;;;7.45;3.00;;;;;;;35.30;24.97;99880.25;4844428;29;20042;-43
2023/09/27 11:21:54;;;;;;;10.20;3.28;;;;;;;35.40;24.74;99887.13;4844318;29;20038;-43
2023/09/27 11:24:20;;;;;;;6.38;2.78;;;;;;;35.25;23.93;99877.78;4844193;29;20098;-44
2023/09/27 11:26:45;;;;;;;6.97;3.10;;;;;;;34.39;24.30;99871.28;4862544;29;20017;-43